Highgate Falls, Vermont
Current Conditions -  °F | °C
As of 8:15 PM on Saturday 25 Oct 2014 (Local Time) from KFSO Reporting Station
Overcast Overcast  
Wind Chill: 51°   Ceiling: 4300
Heat Index: 51°   Visibility: 10mi
Dew Point: 48°   Wind: 5mph
Humidity: 90%   Direction: 190°S
Pressure: 29.45"   Gusts: NA
Location:  44.958°N, 72.9958°W
Report Text: KFSO 260015Z AUTO 19004KT 10SM BKN043 OVC055 11/09 A2945 RMK AO2 T01060091
Loading
Personal Weather Stations






























Interactive Weather Map
Tropical Storm Tracking
New forecast layout! Learn more

10-Day Weather Forecast

Advertisements
Track Severe Weather on mobile